createdAt,value
2023-10-13T00:00:38.121Z,81.82
2023-10-13T00:03:15.381Z,82.12
2023-10-13T00:05:42.256Z,82.28
2023-10-13T00:08:09.785Z,82.57
2023-10-13T00:10:36.437Z,82.50
2023-10-13T00:14:34.212Z,84.67
2023-10-13T00:17:04.864Z,83.21
2023-10-13T00:19:46.243Z,83.20
2023-10-13T00:22:16.231Z,83.07
2023-10-13T00:24:44.398Z,83.22
2023-10-13T00:27:29.116Z,83.21
2023-10-13T00:30:16.217Z,83.54
2023-10-13T00:32:47.644Z,83.65
2023-10-13T00:35:25.630Z,83.35
2023-10-13T00:37:56.267Z,83.50
2023-10-13T00:40:42.634Z,83.70
2023-10-13T00:43:21.397Z,83.67
2023-10-13T00:45:58.125Z,83.64
2023-10-13T00:48:34.854Z,83.90
2023-10-13T00:51:08.949Z,83.75
2023-10-13T00:53:45.040Z,83.91
2023-10-13T00:56:21.770Z,83.85
2023-10-13T00:58:51.232Z,83.95
2023-10-13T01:01:22.291Z,83.98
2023-10-13T01:03:50.503Z,84.11
2023-10-13T01:06:17.802Z,84.25
2023-10-13T01:08:51.182Z,84.53
2023-10-13T01:11:24.299Z,84.60
2023-10-13T01:13:53.904Z,84.43
2023-10-13T01:16:24.244Z,84.65
2023-10-13T01:18:51.353Z,84.79
2023-10-13T01:21:20.897Z,84.90
2023-10-13T01:23:49.074Z,84.99
2023-10-13T01:26:21.734Z,85.05
2023-10-13T01:28:49.120Z,85.02
2023-10-13T01:31:25.006Z,84.91
2023-10-13T01:33:55.077Z,84.82
2023-10-13T01:36:22.281Z,84.68
2023-10-13T01:38:50.478Z,84.72
2023-10-13T01:41:17.095Z,84.73
2023-10-13T01:43:43.686Z,84.88
2023-10-13T01:46:13.938Z,84.91
2023-10-13T01:48:40.934Z,84.84
2023-10-13T01:51:10.641Z,84.77
2023-10-13T01:53:37.954Z,84.89
2023-10-13T01:56:12.004Z,84.95
2023-10-13T01:58:43.091Z,85.13
2023-10-13T02:01:10.902Z,85.19
2023-10-13T02:03:43.617Z,85.25
2023-10-13T02:06:10.924Z,85.39
2023-10-13T02:08:41.234Z,85.32
2023-10-13T02:11:07.811Z,85.24
2023-10-13T02:13:48.867Z,85.49
2023-10-13T02:16:19.577Z,85.40
2023-10-13T02:18:51.971Z,85.40
2023-10-13T02:21:18.533Z,85.39
2023-10-13T02:23:46.106Z,85.27
2023-10-13T02:26:15.576Z,85.22
2023-10-13T02:28:44.731Z,85.31
2023-10-13T02:31:12.009Z,85.25
2023-10-13T02:33:45.442Z,85.34
2023-10-13T02:36:13.052Z,85.34
2023-10-13T02:38:39.669Z,85.08
2023-10-13T02:41:29.429Z,85.03
2023-10-13T02:43:56.270Z,84.96
2023-10-13T02:46:23.698Z,84.73
2023-10-13T02:48:58.239Z,84.58
2023-10-13T02:51:36.155Z,84.54
2023-10-13T02:54:09.968Z,84.46
2023-10-13T02:56:37.105Z,84.26
2023-10-13T02:59:06.935Z,84.06
2023-10-13T03:01:34.655Z,83.75
2023-10-13T03:04:09.204Z,83.63
2023-10-13T03:06:36.265Z,83.50
2023-10-13T03:09:22.402Z,83.26
2023-10-13T03:11:49.619Z,83.03
2023-10-13T03:14:45.403Z,82.81
2023-10-13T03:17:17.503Z,82.97
2023-10-13T03:19:50.481Z,82.89
2023-10-13T03:22:17.340Z,82.83
2023-10-13T03:24:47.533Z,82.81
2023-10-13T03:27:18.265Z,82.79
2023-10-13T03:29:54.654Z,82.60
2023-10-13T03:32:21.222Z,82.54
2023-10-13T03:35:10.917Z,82.28
2023-10-13T03:37:41.051Z,82.31
2023-10-13T03:40:18.452Z,82.27
2023-10-13T03:42:58.187Z,81.87
2023-10-13T03:45:25.814Z,81.60
2023-10-13T03:47:53.279Z,81.63
2023-10-13T03:50:30.458Z,81.52
2023-10-13T03:52:58.519Z,81.38
2023-10-13T03:55:27.573Z,81.44
2023-10-13T03:57:54.689Z,81.62
2023-10-13T04:00:24.463Z,81.53
2023-10-13T04:03:04.396Z,81.28
2023-10-13T04:05:43.017Z,81.35
2023-10-13T04:08:27.905Z,81.29
2023-10-13T04:10:55.917Z,81.26
2023-10-13T04:13:41.541Z,80.94
2023-10-13T04:16:24.226Z,80.85
2023-10-13T04:19:11.289Z,80.87
2023-10-13T04:21:42.838Z,80.93
2023-10-13T04:24:43.182Z,80.82
2023-10-13T04:27:12.748Z,80.78
2023-10-13T04:29:48.450Z,80.95
2023-10-13T04:32:16.506Z,81.04
2023-10-13T04:34:46.347Z,81.25
2023-10-13T04:37:33.552Z,81.24
2023-10-13T04:40:10.513Z,81.38
2023-10-13T04:42:50.101Z,81.54
2023-10-13T04:45:32.695Z,81.62
2023-10-13T04:48:19.143Z,81.74
2023-10-13T04:50:57.072Z,81.93
2023-10-13T04:53:55.450Z,81.99
2023-10-13T04:56:40.216Z,81.90
2023-10-13T04:59:18.361Z,81.52
2023-10-13T05:02:03.934Z,81.57
2023-10-13T05:04:59.685Z,81.20
2023-10-13T05:07:45.310Z,81.05
2023-10-13T05:10:30.747Z,81.25
2023-10-13T05:13:16.392Z,81.32
2023-10-13T05:16:11.073Z,81.51
2023-10-13T05:18:56.853Z,81.67
2023-10-13T05:21:42.194Z,81.62
2023-10-13T05:24:27.677Z,81.15
2023-10-13T05:27:12.776Z,81.12
2023-10-13T05:30:01.214Z,81.11
2023-10-13T05:32:46.410Z,81.15
2023-10-13T05:35:32.229Z,81.10
2023-10-13T05:38:17.760Z,80.96
2023-10-13T05:41:25.459Z,80.33
2023-10-13T05:44:11.336Z,80.02
2023-10-13T05:46:38.124Z,79.88
2023-10-13T05:49:21.776Z,79.69
2023-10-13T05:51:58.542Z,79.61
2023-10-13T05:54:43.928Z,79.53
2023-10-13T05:57:29.628Z,79.21
2023-10-13T06:00:15.211Z,79.35
2023-10-13T06:03:00.665Z,79.09
2023-10-13T06:05:45.940Z,78.80
2023-10-13T06:08:31.468Z,78.21
2023-10-13T06:11:23.692Z,77.02
2023-10-13T06:14:09.470Z,76.59
2023-10-13T06:16:54.575Z,76.52
2023-10-13T06:19:40.212Z,75.68
2023-10-13T06:22:25.773Z,75.56
2023-10-13T06:25:10.956Z,75.29
2023-10-13T06:27:56.885Z,73.89
2023-10-13T06:30:23.517Z,73.84
2023-10-13T06:32:51.456Z,73.77
2023-10-13T06:35:24.362Z,74.17
2023-10-13T06:37:51.993Z,74.26
2023-10-13T06:40:33.737Z,74.06
2023-10-13T06:43:33.000Z,73.37
2023-10-13T06:46:04.383Z,73.34
2023-10-13T06:48:46.884Z,72.64
2023-10-13T06:51:22.027Z,72.07
2023-10-13T06:53:49.353Z,71.79
2023-10-13T06:56:29.223Z,72.30
2023-10-13T06:59:07.123Z,71.65
2023-10-13T07:01:40.460Z,71.66
2023-10-13T07:04:13.754Z,71.14
2023-10-13T07:06:45.015Z,70.91
2023-10-13T07:09:31.682Z,70.72
2023-10-13T07:12:02.138Z,70.23
2023-10-13T07:14:28.989Z,70.03
2023-10-13T07:16:59.125Z,70.18
2023-10-13T07:19:29.767Z,70.15
2023-10-13T07:22:03.515Z,69.50
2023-10-13T07:24:36.183Z,69.45
2023-10-13T07:27:06.405Z,69.89
2023-10-13T07:29:36.047Z,69.76
2023-10-13T07:32:03.502Z,69.27
2023-10-13T07:34:33.243Z,68.94
2023-10-13T07:37:00.482Z,68.98
2023-10-13T07:39:39.743Z,69.08
2023-10-13T07:42:06.854Z,68.77
2023-10-13T07:44:33.965Z,68.83
2023-10-13T07:47:03.795Z,68.78
2023-10-13T07:49:33.297Z,68.65
2023-10-13T07:52:19.757Z,67.93
2023-10-13T07:54:56.697Z,67.63
2023-10-13T07:57:29.868Z,66.87
2023-10-13T08:00:26.157Z,65.83
2023-10-13T08:03:17.633Z,66.39
2023-10-13T08:06:03.735Z,65.92
2023-10-13T08:08:38.334Z,65.06
2023-10-13T08:11:12.292Z,64.20
2023-10-13T08:14:01.772Z,64.48
2023-10-13T08:16:51.003Z,64.60
2023-10-13T08:19:27.589Z,64.22
2023-10-13T08:21:59.561Z,64.22
2023-10-13T08:24:29.670Z,64.48
2023-10-13T08:27:19.381Z,63.80
2023-10-13T08:30:09.851Z,62.77
2023-10-13T08:32:44.104Z,63.07
2023-10-13T08:35:10.839Z,63.43
2023-10-13T08:37:52.673Z,63.19
2023-10-13T08:40:38.622Z,61.81
2023-10-13T08:43:05.347Z,61.10
2023-10-13T08:45:32.005Z,60.66
2023-10-13T08:48:11.590Z,60.67
2023-10-13T08:50:51.001Z,59.79
2023-10-13T08:53:33.510Z,59.63
2023-10-13T08:56:18.663Z,58.12
2023-10-13T08:58:55.904Z,58.83
2023-10-13T09:01:36.188Z,57.80
2023-10-13T09:04:19.274Z,57.20
2023-10-13T09:07:04.887Z,58.05
2023-10-13T09:09:42.155Z,58.99
2023-10-13T09:12:12.041Z,58.04
2023-10-13T09:14:44.697Z,57.44
2023-10-13T09:17:13.357Z,57.99
2023-10-13T09:19:58.741Z,58.47
2023-10-13T09:22:36.128Z,58.19
2023-10-13T09:25:06.093Z,58.24
2023-10-13T09:27:33.799Z,58.05
2023-10-13T09:30:10.595Z,58.73
2023-10-13T09:32:46.254Z,57.13
2023-10-13T09:35:20.421Z,56.70
2023-10-13T09:37:47.167Z,56.19
2023-10-13T09:40:33.251Z,56.02
2023-10-13T09:43:06.202Z,55.15
2023-10-13T09:45:39.270Z,55.18
2023-10-13T09:48:16.964Z,54.27
2023-10-13T09:50:46.437Z,53.55
2023-10-13T09:53:14.635Z,53.52
2023-10-13T09:56:13.079Z,53.24
2023-10-13T09:58:57.819Z,53.21
2023-10-13T10:01:34.109Z,53.78
2023-10-13T10:04:17.566Z,54.02
2023-10-13T10:06:53.712Z,54.20
2023-10-13T10:09:22.819Z,54.52
2023-10-13T10:12:08.642Z,54.57
2023-10-13T10:14:58.933Z,53.52
2023-10-13T10:17:30.126Z,52.42
2023-10-13T10:20:00.021Z,52.89
2023-10-13T10:22:45.140Z,53.00
2023-10-13T10:25:24.843Z,52.17
2023-10-13T10:27:57.833Z,51.56
2023-10-13T10:30:28.289Z,51.80
2023-10-13T10:32:59.829Z,50.72
2023-10-13T10:35:30.398Z,51.30
2023-10-13T10:38:12.106Z,51.59
2023-10-13T10:41:01.366Z,51.38
2023-10-13T10:43:44.279Z,51.34
2023-10-13T10:46:38.697Z,50.58
2023-10-13T10:49:09.227Z,50.40
2023-10-13T10:51:44.253Z,49.80
2023-10-13T10:54:20.756Z,50.39
2023-10-13T10:56:53.239Z,50.74
2023-10-13T10:59:20.380Z,49.50
2023-10-13T11:01:47.573Z,50.23
2023-10-13T11:04:17.302Z,50.42
2023-10-13T11:06:46.643Z,50.16
2023-10-13T11:09:21.700Z,49.23
2023-10-13T11:11:54.284Z,49.17
2023-10-13T11:14:25.559Z,48.75
2023-10-13T11:16:55.817Z,49.30
2023-10-13T11:19:28.811Z,49.31
2023-10-13T11:21:56.361Z,49.42
2023-10-13T11:24:23.397Z,49.37
2023-10-13T11:26:50.575Z,49.50
2023-10-13T11:29:21.043Z,49.05
2023-10-13T11:31:58.300Z,49.03
2023-10-13T11:34:25.873Z,48.37
2023-10-13T11:36:52.899Z,47.87
2023-10-13T11:39:33.561Z,47.72
2023-10-13T11:42:00.104Z,48.06
2023-10-13T11:44:34.194Z,47.73
2023-10-13T11:47:26.345Z,47.82
2023-10-13T11:49:57.318Z,47.79
2023-10-13T11:52:26.881Z,47.63
2023-10-13T11:54:53.678Z,47.06
2023-10-13T11:57:21.797Z,46.57
2023-10-13T11:59:56.316Z,46.49
2023-10-13T12:02:25.816Z,45.15
2023-10-13T12:04:55.044Z,43.89
2023-10-13T12:07:24.519Z,43.22
2023-10-13T12:09:55.264Z,43.58
2023-10-13T12:12:41.282Z,43.42
2023-10-13T12:15:25.595Z,44.24
2023-10-13T12:17:52.570Z,44.66
2023-10-13T12:20:32.716Z,43.76
2023-10-13T12:23:10.018Z,43.81
2023-10-13T12:25:55.334Z,44.27
2023-10-13T12:28:23.946Z,44.39
2023-10-13T12:32:06.953Z,44.70
2023-10-13T12:34:55.057Z,44.69
2023-10-13T12:37:41.579Z,45.33
2023-10-13T12:40:37.789Z,45.66
2023-10-13T12:43:24.686Z,45.66
2023-10-13T12:46:10.893Z,45.34
2023-10-13T12:48:57.376Z,44.63
2023-10-13T12:51:34.047Z,44.74
2023-10-13T12:54:16.955Z,43.81
2023-10-13T12:56:44.988Z,43.61
2023-10-13T12:59:14.920Z,43.57
2023-10-13T13:01:45.269Z,43.60
2023-10-13T13:04:22.372Z,42.99
2023-10-13T13:06:55.042Z,42.64
2023-10-13T13:09:28.714Z,41.48
2023-10-13T13:11:59.516Z,41.35
2023-10-13T13:14:30.616Z,40.94
2023-10-13T13:17:06.230Z,39.89
2023-10-13T13:19:40.690Z,38.93
2023-10-13T13:22:15.431Z,39.21
2023-10-13T13:24:46.567Z,39.19
2023-10-13T13:27:15.878Z,38.87
2023-10-13T13:29:43.390Z,38.48
2023-10-13T13:32:26.555Z,39.47
2023-10-13T13:35:06.594Z,38.86
2023-10-13T13:37:34.208Z,38.64
2023-10-13T13:40:18.913Z,38.63
2023-10-13T13:42:46.512Z,38.47
2023-10-13T13:45:28.607Z,38.66
2023-10-13T13:47:56.553Z,38.59
2023-10-13T13:50:29.514Z,39.31
2023-10-13T13:52:57.682Z,38.86
2023-10-13T13:55:25.776Z,38.72
2023-10-13T13:57:53.345Z,38.58
2023-10-13T14:00:47.044Z,38.23
2023-10-13T14:03:28.290Z,38.83
2023-10-13T14:05:56.012Z,38.53
2023-10-13T14:08:23.360Z,38.64
2023-10-13T14:11:09.587Z,39.10
2023-10-13T14:13:57.029Z,39.74
2023-10-13T14:16:24.762Z,39.49
2023-10-13T14:18:52.604Z,40.23
2023-10-13T14:21:20.315Z,40.65
2023-10-13T14:23:48.769Z,41.21
2023-10-13T14:26:21.284Z,41.34
2023-10-13T14:29:08.292Z,41.26
2023-10-13T14:31:39.105Z,40.82
2023-10-13T14:34:07.980Z,41.16
2023-10-13T14:36:38.234Z,41.13
2023-10-13T14:39:11.709Z,41.19
2023-10-13T14:41:39.189Z,41.16
2023-10-13T14:44:06.860Z,41.43
2023-10-13T14:46:40.342Z,41.31
2023-10-13T14:49:08.361Z,41.04
2023-10-13T14:51:41.488Z,40.98
2023-10-13T14:54:09.063Z,41.07
2023-10-13T14:56:36.434Z,41.39
2023-10-13T14:59:06.368Z,41.32
2023-10-13T15:01:34.086Z,41.66
2023-10-13T15:04:01.696Z,42.02
2023-10-13T15:06:32.294Z,42.51
2023-10-13T15:09:00.506Z,43.12
2023-10-13T15:11:28.673Z,43.04
2023-10-13T15:13:57.337Z,43.86
2023-10-13T15:16:28.238Z,44.54
2023-10-13T15:18:55.929Z,45.33
2023-10-13T15:21:33.818Z,45.82
2023-10-13T15:24:05.540Z,46.41
2023-10-13T15:26:38.763Z,46.76
2023-10-13T15:29:13.497Z,47.25
2023-10-13T15:31:42.674Z,47.79
2023-10-13T15:34:16.464Z,48.10
2023-10-13T15:36:44.477Z,48.71
2023-10-13T15:39:12.390Z,49.10
2023-10-13T15:41:39.807Z,48.83
2023-10-13T15:44:10.983Z,48.53
2023-10-13T15:47:57.267Z,48.87
2023-10-13T15:49:29.177Z,48.91
2023-10-13T15:51:59.601Z,49.43
2023-10-13T15:54:27.120Z,49.35
2023-10-13T15:56:55.748Z,49.20
2023-10-13T15:59:24.717Z,49.27
2023-10-13T16:01:58.894Z,49.28
2023-10-13T16:04:27.171Z,49.44
2023-10-13T16:06:54.876Z,49.33
2023-10-13T16:09:25.925Z,49.29
2023-10-13T16:11:54.507Z,49.58
2023-10-13T16:14:23.290Z,49.92
2023-10-13T16:16:54.209Z,50.26
2023-10-13T16:19:25.294Z,50.51
2023-10-13T16:21:54.175Z,50.57
2023-10-13T16:24:22.475Z,50.94
2023-10-13T16:26:53.696Z,51.27
2023-10-13T16:29:21.413Z,51.49
2023-10-13T16:31:49.153Z,51.64
2023-10-13T16:34:17.915Z,51.65
2023-10-13T16:36:49.413Z,51.66
2023-10-13T16:39:17.700Z,51.90
2023-10-13T16:41:48.292Z,52.00
2023-10-13T16:44:17.169Z,51.70
2023-10-13T16:46:44.887Z,51.86
2023-10-13T16:49:12.634Z,52.10
2023-10-13T16:51:42.017Z,52.35
2023-10-13T16:54:11.422Z,52.37
2023-10-13T16:56:39.892Z,52.51
2023-10-13T16:59:08.569Z,52.64
2023-10-13T17:01:38.459Z,52.75
2023-10-13T17:04:06.412Z,52.62
2023-10-13T17:06:35.169Z,52.82
2023-10-13T17:09:05.528Z,52.96
2023-10-13T17:11:33.255Z,52.72
2023-10-13T17:14:00.854Z,52.80
2023-10-13T17:16:28.449Z,52.83
2023-10-13T17:18:56.220Z,52.64
2023-10-13T17:21:32.642Z,52.80
2023-10-13T17:24:03.608Z,52.69
2023-10-13T17:26:32.042Z,52.95
2023-10-13T17:29:00.076Z,52.79
2023-10-13T17:31:33.761Z,52.76
2023-10-13T17:34:03.568Z,52.85
2023-10-13T17:36:31.347Z,52.84
2023-10-13T17:38:59.084Z,52.77
2023-10-13T17:41:26.862Z,52.75
2023-10-13T17:43:54.474Z,52.46
2023-10-13T17:46:22.574Z,52.19
2023-10-13T17:48:50.344Z,52.38
2023-10-13T17:51:17.971Z,52.82
2023-10-13T17:53:47.381Z,53.14
2023-10-13T17:56:17.450Z,53.33
2023-10-13T17:58:45.208Z,53.85
2023-10-13T18:01:20.792Z,54.66
2023-10-13T18:03:50.389Z,54.58
2023-10-13T18:06:19.012Z,54.77
2023-10-13T18:08:46.989Z,54.95
2023-10-13T18:11:14.625Z,54.89
2023-10-13T18:13:46.836Z,54.84
2023-10-13T18:16:15.478Z,54.70
2023-10-13T18:18:43.797Z,54.71
2023-10-13T18:21:11.450Z,54.66
2023-10-13T18:23:41.592Z,54.81
2023-10-13T18:26:09.078Z,54.81
2023-10-13T18:28:37.432Z,54.97
2023-10-13T18:31:12.553Z,55.07
2023-10-13T18:33:41.614Z,54.78
2023-10-13T18:36:21.521Z,54.98
2023-10-13T18:38:50.234Z,55.29
2023-10-13T18:41:23.246Z,55.36
2023-10-13T18:43:51.690Z,55.66
2023-10-13T18:46:22.898Z,55.73
2023-10-13T18:48:50.550Z,55.71
2023-10-13T18:51:19.500Z,55.47
2023-10-13T18:53:47.647Z,55.39
2023-10-13T18:56:21.478Z,55.09
2023-10-13T18:58:55.143Z,55.33
2023-10-13T19:01:28.276Z,55.52
2023-10-13T19:04:01.773Z,55.69
2023-10-13T19:06:33.918Z,55.73
2023-10-13T19:09:06.062Z,55.66
2023-10-13T19:11:38.477Z,55.88
2023-10-13T19:14:11.139Z,56.08
2023-10-13T19:16:41.820Z,56.32
2023-10-13T19:19:09.415Z,56.35
2023-10-13T19:21:40.541Z,56.51
2023-10-13T19:24:08.460Z,56.20
2023-10-13T19:26:37.597Z,56.08
2023-10-13T19:29:09.640Z,56.19
2023-10-13T19:31:37.259Z,56.15
2023-10-13T19:34:06.522Z,56.09
2023-10-13T19:36:34.808Z,56.16
2023-10-13T19:39:08.988Z,55.94
2023-10-13T19:41:37.378Z,55.97
2023-10-13T19:44:05.379Z,56.32
2023-10-13T19:46:34.288Z,56.56
2023-10-13T19:49:05.994Z,56.67
2023-10-13T19:51:34.943Z,56.59
2023-10-13T19:54:05.987Z,56.16
2023-10-13T19:56:33.845Z,56.09
2023-10-13T19:59:02.937Z,56.32
2023-10-13T20:01:35.406Z,56.48
2023-10-13T20:04:08.897Z,56.43
2023-10-13T20:06:36.841Z,56.16
2023-10-13T20:09:13.879Z,56.03
2023-10-13T20:11:41.757Z,56.17
2023-10-13T20:14:11.171Z,56.25
2023-10-13T20:16:38.784Z,56.38
2023-10-13T20:19:06.249Z,56.56
2023-10-13T20:21:36.887Z,56.28
2023-10-13T20:24:05.900Z,56.13
2023-10-13T20:26:40.012Z,56.35
2023-10-13T20:29:07.595Z,56.29
2023-10-13T20:31:38.062Z,56.43
2023-10-13T20:34:05.648Z,56.46
2023-10-13T20:36:33.087Z,56.22
2023-10-13T20:39:02.330Z,56.27
2023-10-13T20:41:30.034Z,56.36
2023-10-13T20:43:57.567Z,56.62
2023-10-13T20:46:25.056Z,56.94
2023-10-13T20:48:54.994Z,56.99
2023-10-13T20:51:25.705Z,57.12
2023-10-13T20:53:54.806Z,57.62
2023-10-13T20:56:23.993Z,57.98
2023-10-13T20:58:58.032Z,58.22
2023-10-13T21:01:25.817Z,58.06
2023-10-13T21:03:53.519Z,57.99
2023-10-13T21:06:21.068Z,58.02
2023-10-13T21:08:49.324Z,58.18
2023-10-13T21:11:17.805Z,58.04
2023-10-13T21:13:45.914Z,57.60
2023-10-13T21:16:13.433Z,57.59
2023-10-13T21:18:46.421Z,57.73
2023-10-13T21:21:21.240Z,57.67
2023-10-13T21:23:52.388Z,57.69
2023-10-13T21:26:24.151Z,57.37
2023-10-13T21:28:51.574Z,57.14
2023-10-13T21:31:19.818Z,57.08
2023-10-13T21:33:55.279Z,57.14
2023-10-13T21:36:25.801Z,57.14
2023-10-13T21:38:55.823Z,57.08
2023-10-13T21:41:23.772Z,56.81
2023-10-13T21:43:59.815Z,56.84
2023-10-13T21:46:27.427Z,56.72
2023-10-13T21:48:55.413Z,56.61
2023-10-13T21:51:26.096Z,56.52
2023-10-13T21:53:53.818Z,56.04
2023-10-13T21:56:23.857Z,56.00
2023-10-13T21:58:51.550Z,56.09
2023-10-13T22:01:21.822Z,56.07
2023-10-13T22:03:50.520Z,56.08
2023-10-13T22:06:18.197Z,56.03
2023-10-13T22:08:46.987Z,55.65
2023-10-13T22:11:15.754Z,55.32
2023-10-13T22:13:43.187Z,55.38
2023-10-13T22:16:13.904Z,55.72
2023-10-13T22:18:43.119Z,55.89
2023-10-13T22:21:11.543Z,56.00
2023-10-13T22:23:41.832Z,55.89
2023-10-13T22:26:13.961Z,56.01
2023-10-13T22:28:42.087Z,56.17
2023-10-13T22:31:12.338Z,56.35
2023-10-13T22:33:44.291Z,56.51
2023-10-13T22:36:11.999Z,56.23
2023-10-13T22:38:41.781Z,56.18
2023-10-13T22:41:13.287Z,56.01
2023-10-13T22:43:41.237Z,55.99
2023-10-13T22:46:08.956Z,55.91
2023-10-13T22:48:36.797Z,55.77
2023-10-13T22:51:07.669Z,55.52
2023-10-13T22:53:36.905Z,55.04
2023-10-13T22:56:06.183Z,55.05
2023-10-13T22:58:36.480Z,54.99
2023-10-13T23:01:04.325Z,54.83
2023-10-13T23:03:37.109Z,54.87
2023-10-13T23:06:05.592Z,54.89
2023-10-13T23:08:37.382Z,54.69
2023-10-13T23:11:17.576Z,54.61
2023-10-13T23:13:52.552Z,54.70
2023-10-13T23:16:23.377Z,54.91
2023-10-13T23:18:52.376Z,55.11
2023-10-13T23:21:20.713Z,55.22
2023-10-13T23:23:54.787Z,55.19
2023-10-13T23:26:23.435Z,54.88
2023-10-13T23:28:52.550Z,54.98
2023-10-13T23:31:20.851Z,55.29
2023-10-13T23:33:48.995Z,55.39
2023-10-13T23:36:17.486Z,55.49
2023-10-13T23:38:54.717Z,55.67
2023-10-13T23:41:26.264Z,55.30
2023-10-13T23:43:57.406Z,55.14
2023-10-13T23:46:25.934Z,55.23
2023-10-13T23:48:57.091Z,55.32
2023-10-13T23:51:28.510Z,55.42
2023-10-13T23:54:02.048Z,55.36
2023-10-13T23:56:29.582Z,55.07
2023-10-13T23:59:00.434Z,54.90
